createdAt,value
2023-01-02T00:01:20.753Z,100.00
2023-01-02T00:03:47.217Z,100.00
2023-01-02T00:06:13.639Z,100.00
2023-01-02T00:08:39.984Z,100.00
2023-01-02T00:11:06.276Z,100.00
2023-01-02T00:13:32.609Z,100.00
2023-01-02T00:15:59.006Z,100.00
2023-01-02T00:18:25.484Z,100.00
2023-01-02T00:20:51.821Z,100.00
2023-01-02T00:23:18.199Z,100.00
2023-01-02T00:25:44.542Z,100.00
2023-01-02T00:28:10.923Z,100.00
2023-01-02T00:30:38.907Z,100.00
2023-01-02T00:33:05.900Z,100.00
2023-01-02T00:35:32.481Z,100.00
2023-01-02T00:37:58.846Z,100.00
2023-01-02T00:40:25.230Z,100.00
2023-01-02T00:42:51.611Z,100.00
2023-01-02T00:45:17.929Z,100.00
2023-01-02T00:47:44.249Z,100.00
2023-01-02T00:50:10.582Z,100.00
2023-01-02T00:52:36.966Z,100.00
2023-01-02T00:55:03.377Z,100.00
2023-01-02T00:57:29.691Z,100.00
2023-01-02T00:59:56.449Z,100.00
2023-01-02T01:02:22.943Z,100.00
2023-01-02T01:04:49.362Z,100.00
2023-01-02T01:07:15.813Z,100.00
2023-01-02T01:09:42.189Z,100.00
2023-01-02T01:12:08.726Z,100.00
2023-01-02T01:14:35.073Z,100.00
2023-01-02T01:17:01.467Z,100.00
2023-01-02T01:19:31.611Z,100.00
2023-01-02T01:21:57.988Z,100.00
2023-01-02T01:24:24.376Z,100.00
2023-01-02T01:26:50.778Z,100.00
2023-01-02T01:29:17.125Z,99.69
2023-01-02T01:31:43.532Z,98.99
2023-01-02T01:34:11.863Z,99.37
2023-01-02T01:36:38.214Z,100.00
2023-01-02T01:39:04.712Z,98.41
2023-01-02T01:41:31.111Z,98.43
2023-01-02T01:43:58.575Z,99.04
2023-01-02T01:46:24.941Z,97.88
2023-01-02T01:49:09.628Z,96.75
2023-01-02T01:51:38.652Z,97.32
2023-01-02T01:54:10.390Z,96.95
2023-01-02T01:56:39.232Z,97.17
2023-01-02T01:59:07.074Z,96.54
2023-01-02T02:01:33.669Z,96.54
2023-01-02T02:04:01.017Z,96.72
2023-01-02T02:06:28.331Z,97.17
2023-01-02T02:08:57.593Z,96.51
2023-01-02T02:11:24.311Z,96.24
2023-01-02T02:13:50.778Z,96.33
2023-01-02T02:16:17.347Z,96.27
2023-01-02T02:18:43.865Z,96.40
2023-01-02T02:21:13.259Z,95.94
2023-01-02T02:23:58.373Z,95.38
2023-01-02T02:26:33.839Z,95.72
2023-01-02T02:29:00.105Z,93.67
2023-01-02T02:31:45.339Z,94.35
2023-01-02T02:34:24.499Z,94.45
2023-01-02T02:36:57.793Z,94.43
2023-01-02T02:39:24.071Z,93.04
2023-01-02T02:42:00.648Z,94.12
2023-01-02T02:44:30.056Z,93.71
2023-01-02T02:46:59.780Z,93.98
2023-01-02T02:49:35.203Z,93.87
2023-01-02T02:52:20.532Z,93.98
2023-01-02T02:54:55.164Z,93.63
2023-01-02T02:57:22.229Z,94.02
2023-01-02T02:59:48.743Z,94.22
2023-01-02T03:02:16.144Z,93.68
2023-01-02T03:04:44.400Z,94.54
2023-01-02T03:07:16.940Z,93.67
2023-01-02T03:10:09.487Z,93.17
2023-01-02T03:12:43.678Z,93.18
2023-01-02T03:15:18.483Z,93.70
2023-01-02T03:18:04.807Z,93.45
2023-01-02T03:20:36.858Z,93.44
2023-01-02T03:23:05.437Z,93.11
2023-01-02T03:25:33.570Z,93.16
2023-01-02T03:28:01.808Z,93.49
2023-01-02T03:30:30.118Z,92.97
2023-01-02T03:32:58.106Z,93.42
2023-01-02T03:35:26.792Z,92.82
2023-01-02T03:37:54.829Z,92.86
2023-01-02T03:40:24.873Z,93.56
2023-01-02T03:43:06.131Z,92.76
2023-01-02T03:45:34.278Z,91.98
2023-01-02T03:48:16.056Z,92.42
2023-01-02T03:50:46.937Z,92.29
2023-01-02T03:53:13.725Z,91.50
2023-01-02T03:55:41.585Z,91.48
2023-01-02T03:58:12.140Z,92.04
2023-01-02T04:00:45.042Z,92.15
2023-01-02T04:03:18.176Z,91.63
2023-01-02T04:05:50.859Z,91.11
2023-01-02T04:08:24.733Z,90.75
2023-01-02T04:10:57.971Z,90.71
2023-01-02T04:13:28.978Z,91.70
2023-01-02T04:15:56.084Z,91.29
2023-01-02T04:18:26.901Z,91.05
2023-01-02T04:20:56.493Z,91.05
2023-01-02T04:23:35.939Z,90.89
2023-01-02T04:26:05.779Z,90.16
2023-01-02T04:28:33.243Z,91.09
2023-01-02T04:31:14.558Z,90.59
2023-01-02T04:33:45.752Z,90.97
2023-01-02T04:36:13.615Z,91.00
2023-01-02T04:38:41.594Z,89.73
2023-01-02T04:41:08.041Z,88.70
2023-01-02T04:43:34.433Z,88.42
2023-01-02T04:46:00.907Z,88.40
2023-01-02T04:48:27.329Z,88.86
2023-01-02T04:50:54.090Z,88.62
2023-01-02T04:53:20.576Z,89.27
2023-01-02T04:55:46.931Z,89.44
2023-01-02T04:58:13.284Z,88.69
2023-01-02T05:00:39.739Z,88.33
2023-01-02T05:03:06.083Z,88.06
2023-01-02T05:05:32.852Z,88.05
2023-01-02T05:07:59.969Z,87.67
2023-01-02T05:10:26.298Z,87.91
2023-01-02T05:12:52.622Z,88.46
2023-01-02T05:15:18.953Z,88.02
2023-01-02T05:17:45.292Z,88.29
2023-01-02T05:20:12.619Z,88.48
2023-01-02T05:22:58.240Z,88.88
2023-01-02T05:25:25.483Z,89.25
2023-01-02T05:27:55.287Z,89.08
2023-01-02T05:30:22.174Z,88.99
2023-01-02T05:32:51.927Z,89.04
2023-01-02T05:35:18.250Z,89.47
2023-01-02T05:37:44.588Z,89.04
2023-01-02T05:40:11.293Z,89.12
2023-01-02T05:42:37.780Z,89.36
2023-01-02T05:45:04.695Z,89.59
2023-01-02T05:47:31.220Z,89.79
2023-01-02T05:49:57.536Z,89.76
2023-01-02T05:52:23.885Z,90.89
2023-01-02T05:54:50.226Z,90.90
2023-01-02T05:57:16.744Z,91.10
2023-01-02T05:59:43.084Z,91.23
2023-01-02T06:02:09.466Z,91.51
2023-01-02T06:04:35.901Z,91.67
2023-01-02T06:07:02.295Z,92.48
2023-01-02T06:09:28.707Z,92.74
2023-01-02T06:11:55.110Z,92.56
2023-01-02T06:14:22.357Z,92.32
2023-01-02T06:16:48.680Z,92.61
2023-01-02T06:19:15.068Z,93.08
2023-01-02T06:21:41.393Z,93.82
2023-01-02T06:24:07.890Z,92.77
2023-01-02T06:26:35.446Z,93.57
2023-01-02T06:29:02.608Z,93.75
2023-01-02T06:31:29.559Z,93.70
2023-01-02T06:33:57.101Z,93.47
2023-01-02T06:36:23.507Z,93.55
2023-01-02T06:38:49.965Z,94.34
2023-01-02T06:41:16.952Z,93.97
2023-01-02T06:43:47.721Z,93.92
2023-01-02T06:46:15.022Z,94.03
2023-01-02T06:48:41.703Z,93.92
2023-01-02T06:51:09.317Z,94.14
2023-01-02T06:53:36.580Z,94.52
2023-01-02T06:56:03.481Z,94.67
2023-01-02T06:58:30.650Z,94.45
2023-01-02T07:01:01.635Z,94.87
2023-01-02T07:03:28.012Z,94.59
2023-01-02T07:05:54.287Z,95.11
2023-01-02T07:08:20.632Z,94.61
2023-01-02T07:10:52.697Z,95.04
2023-01-02T07:13:19.446Z,95.47
2023-01-02T07:15:45.812Z,95.56
2023-01-02T07:18:12.159Z,95.09
2023-01-02T07:20:38.517Z,95.31
2023-01-02T07:23:04.905Z,95.91
2023-01-02T07:25:31.699Z,95.51
2023-01-02T07:27:59.041Z,95.93
2023-01-02T07:30:25.364Z,96.11
2023-01-02T07:32:53.158Z,96.03
2023-01-02T07:35:19.499Z,96.42
2023-01-02T07:37:45.902Z,96.92
2023-01-02T07:40:12.363Z,97.19
2023-01-02T07:42:38.703Z,97.30
2023-01-02T07:45:05.328Z,96.89
2023-01-02T07:47:32.052Z,97.39
2023-01-02T07:49:58.342Z,96.62
2023-01-02T07:52:24.682Z,96.75
2023-01-02T07:54:51.027Z,97.08
2023-01-02T07:57:17.392Z,97.30
2023-01-02T07:59:46.910Z,96.83
2023-01-02T08:02:13.623Z,97.25
2023-01-02T08:04:40.005Z,97.47
2023-01-02T08:07:06.333Z,97.57
2023-01-02T08:09:32.735Z,97.84
2023-01-02T08:11:59.160Z,96.85
2023-01-02T08:14:25.444Z,97.43
2023-01-02T08:16:51.798Z,96.67
2023-01-02T08:19:18.225Z,97.50
2023-01-02T08:21:44.515Z,98.67
2023-01-02T08:24:10.870Z,100.00
2023-01-02T08:26:37.244Z,100.00
2023-01-02T08:29:09.447Z,100.00
2023-01-02T08:31:43.656Z,100.00
2023-01-02T08:34:14.517Z,100.00
2023-01-02T08:36:41.587Z,100.00
2023-01-02T08:39:07.958Z,100.00
2023-01-02T08:41:35.948Z,100.00
2023-01-02T08:44:02.389Z,100.00
2023-01-02T08:46:29.083Z,100.00
2023-01-02T08:48:55.488Z,100.00
2023-01-02T08:51:21.835Z,100.00
2023-01-02T08:53:48.212Z,100.00
2023-01-02T08:56:28.133Z,100.00
2023-01-02T08:58:56.026Z,100.00
2023-01-02T09:01:23.617Z,100.00
2023-01-02T09:03:50.583Z,100.00
2023-01-02T09:06:21.747Z,100.00
2023-01-02T09:08:48.860Z,100.00
2023-01-02T09:11:16.485Z,100.00
2023-01-02T09:13:43.401Z,100.00
2023-01-02T09:16:10.514Z,100.00
2023-01-02T09:18:37.912Z,100.00
2023-01-02T09:21:04.648Z,100.00
2023-01-02T09:23:31.753Z,100.00
2023-01-02T09:26:02.078Z,100.00
2023-01-02T09:28:28.983Z,100.00
2023-01-02T09:30:55.387Z,100.00
2023-01-02T09:33:21.772Z,100.00
2023-01-02T09:35:48.418Z,100.00
2023-01-02T09:38:14.951Z,100.00
2023-01-02T09:40:45.937Z,100.00
2023-01-02T09:43:12.689Z,100.00
2023-01-02T09:45:41.334Z,100.00
2023-01-02T09:48:14.021Z,100.00
2023-01-02T09:50:40.395Z,100.00
2023-01-02T09:53:06.721Z,100.00
2023-01-02T09:55:45.065Z,100.00
2023-01-02T09:58:23.387Z,100.00
2023-01-02T10:00:50.432Z,100.00
2023-01-02T10:03:23.540Z,100.00
2023-01-02T10:05:49.894Z,100.00
2023-01-02T10:08:31.837Z,100.00
2023-01-02T10:11:08.161Z,100.00
2023-01-02T10:14:17.559Z,100.00
2023-01-02T10:16:32.568Z,100.00
2023-01-02T10:19:00.949Z,100.00
2023-01-02T10:21:30.260Z,100.00
2023-01-02T10:24:01.904Z,100.00
2023-01-02T10:26:31.029Z,100.00
2023-01-02T10:29:16.332Z,100.00
2023-01-02T10:31:45.084Z,100.00
2023-01-02T10:34:16.757Z,100.00
2023-01-02T10:36:44.430Z,100.00
2023-01-02T10:39:16.325Z,100.00
2023-01-02T10:41:46.728Z,100.00
2023-01-02T10:44:13.042Z,100.00
2023-01-02T10:46:40.980Z,100.00
2023-01-02T10:49:08.559Z,100.00
2023-01-02T10:51:36.440Z,100.00
2023-01-02T10:54:07.333Z,100.00
2023-01-02T10:56:37.991Z,100.00
2023-01-02T10:59:16.105Z,100.00
2023-01-02T11:01:50.263Z,100.00
2023-01-02T11:04:20.488Z,100.00
2023-01-02T11:06:56.130Z,100.00
2023-01-02T11:09:24.383Z,100.00
2023-01-02T11:11:54.074Z,100.00
2023-01-02T11:14:31.966Z,100.00
2023-01-02T11:17:13.585Z,100.00
2023-01-02T11:19:41.663Z,100.00
2023-01-02T11:22:09.172Z,100.00
2023-01-02T11:24:45.075Z,100.00
2023-01-02T11:27:11.534Z,100.00
2023-01-02T11:29:37.916Z,100.00
2023-01-02T11:32:04.538Z,100.00
2023-01-02T11:34:34.317Z,100.00
2023-01-02T11:37:18.703Z,100.00
2023-01-02T11:39:57.203Z,100.00
2023-01-02T11:42:54.450Z,100.00
2023-01-02T11:45:21.015Z,100.00
2023-01-02T11:48:04.580Z,100.00
2023-01-02T11:50:33.829Z,100.00
2023-01-02T11:53:12.417Z,100.00
2023-01-02T11:55:45.385Z,100.00
2023-01-02T11:58:19.062Z,100.00
2023-01-02T12:00:48.652Z,100.00
2023-01-02T12:03:18.763Z,100.00
2023-01-02T12:06:05.234Z,100.00
2023-01-02T12:08:36.324Z,100.00
2023-01-02T12:11:13.904Z,100.00
2023-01-02T12:13:46.489Z,100.00
2023-01-02T12:16:18.430Z,100.00
2023-01-02T12:19:11.039Z,100.00
2023-01-02T12:21:48.599Z,100.00
2023-01-02T12:24:18.114Z,100.00
2023-01-02T12:27:04.653Z,100.00
2023-01-02T12:29:46.701Z,100.00
2023-01-02T12:32:37.127Z,100.00
2023-01-02T12:35:21.079Z,100.00
2023-01-02T12:37:52.488Z,100.00
2023-01-02T12:40:29.029Z,100.00
2023-01-02T12:43:04.530Z,100.00
2023-01-02T12:45:39.689Z,100.00
2023-01-02T12:48:35.593Z,100.00
2023-01-02T12:51:01.939Z,100.00
2023-01-02T12:53:37.317Z,100.00
2023-01-02T12:56:09.600Z,100.00
2023-01-02T12:58:35.996Z,100.00
2023-01-02T13:01:17.467Z,100.00
2023-01-02T13:03:52.749Z,100.00
2023-01-02T13:06:44.797Z,100.00
2023-01-02T13:09:14.555Z,100.00
2023-01-02T13:11:57.355Z,100.00
2023-01-02T13:14:25.666Z,100.00
2023-01-02T13:16:59.150Z,100.00
2023-01-02T13:19:33.806Z,100.00
2023-01-02T13:22:07.305Z,100.00
2023-01-02T13:24:34.014Z,100.00
2023-01-02T13:27:00.511Z,100.00
2023-01-02T13:29:40.445Z,100.00
2023-01-02T13:32:09.554Z,100.00
2023-01-02T13:34:40.822Z,100.00
2023-01-02T13:37:08.937Z,100.00
2023-01-02T13:39:41.511Z,100.00
2023-01-02T13:42:29.002Z,100.00
2023-01-02T13:44:57.733Z,100.00
2023-01-02T13:47:36.442Z,100.00
2023-01-02T13:50:18.662Z,100.00
2023-01-02T13:53:14.489Z,100.00
2023-01-02T13:55:40.956Z,100.00
2023-01-02T13:58:17.775Z,100.00
2023-01-02T14:00:53.414Z,100.00
2023-01-02T14:03:21.002Z,100.00
2023-01-02T14:05:58.412Z,100.00
2023-01-02T14:08:26.617Z,100.00
2023-01-02T14:11:13.497Z,100.00
2023-01-02T14:13:45.261Z,100.00
2023-01-02T14:16:20.371Z,100.00
2023-01-02T14:19:01.961Z,100.00
2023-01-02T14:21:32.769Z,100.00
2023-01-02T14:24:16.933Z,100.00
2023-01-02T14:26:52.300Z,100.00
2023-01-02T14:29:19.476Z,100.00
2023-01-02T14:31:46.445Z,100.00
2023-01-02T14:34:21.534Z,100.00
2023-01-02T14:36:49.401Z,100.00
2023-01-02T14:39:23.579Z,100.00
2023-01-02T14:42:08.995Z,100.00
2023-01-02T14:44:43.479Z,100.00
2023-01-02T14:47:12.386Z,100.00
2023-01-02T14:49:39.285Z,100.00
2023-01-02T14:52:07.516Z,100.00
2023-01-02T14:54:42.441Z,100.00
2023-01-02T14:57:22.241Z,100.00
2023-01-02T14:59:49.716Z,100.00
2023-01-02T15:02:17.732Z,100.00
2023-01-02T15:04:47.414Z,100.00
2023-01-02T15:07:34.102Z,100.00
2023-01-02T15:10:11.677Z,100.00
2023-01-02T15:13:05.019Z,100.00
2023-01-02T15:15:37.442Z,100.00
2023-01-02T15:18:05.877Z,100.00
2023-01-02T15:20:34.227Z,100.00
2023-01-02T15:23:01.131Z,100.00
2023-01-02T15:25:32.478Z,100.00
2023-01-02T15:27:58.964Z,100.00
2023-01-02T15:30:34.461Z,100.00
2023-01-02T15:33:00.837Z,100.00
2023-01-02T15:35:28.760Z,100.00
2023-01-02T15:37:55.227Z,100.00
2023-01-02T15:40:21.651Z,100.00
2023-01-02T15:43:06.908Z,100.00
2023-01-02T15:45:33.697Z,100.00
2023-01-02T15:48:00.392Z,100.00
2023-01-02T15:50:28.305Z,100.00
2023-01-02T15:52:59.234Z,100.00
2023-01-02T15:55:26.677Z,100.00
2023-01-02T15:57:54.011Z,100.00
2023-01-02T16:00:34.425Z,100.00
2023-01-02T16:03:01.011Z,100.00
2023-01-02T16:05:28.316Z,100.00
2023-01-02T16:07:56.300Z,100.00
2023-01-02T16:10:23.998Z,100.00
2023-01-02T16:12:52.194Z,100.00
2023-01-02T16:15:23.986Z,100.00
2023-01-02T16:17:50.795Z,100.00
2023-01-02T16:20:19.100Z,100.00
2023-01-02T16:22:57.509Z,100.00
2023-01-02T16:25:28.863Z,100.00
2023-01-02T16:27:58.380Z,100.00
2023-01-02T16:30:33.198Z,100.00
2023-01-02T16:33:19.032Z,100.00
2023-01-02T16:35:55.285Z,100.00
2023-01-02T16:38:27.125Z,100.00
2023-01-02T16:41:02.949Z,100.00
2023-01-02T16:43:30.611Z,100.00
2023-01-02T16:45:57.697Z,100.00
2023-01-02T16:48:25.375Z,100.00
2023-01-02T16:50:53.260Z,100.00
2023-01-02T16:53:23.597Z,100.00
2023-01-02T16:55:51.646Z,100.00
2023-01-02T16:58:19.434Z,100.00
2023-01-02T17:00:46.107Z,100.00
2023-01-02T17:03:17.532Z,100.00
2023-01-02T17:05:45.844Z,100.00
2023-01-02T17:08:12.221Z,100.00
2023-01-02T17:10:38.661Z,100.00
2023-01-02T17:13:04.998Z,100.00
2023-01-02T17:15:32.297Z,100.00
2023-01-02T17:17:59.315Z,100.00
2023-01-02T17:20:26.923Z,100.00
2023-01-02T17:22:53.286Z,100.00
2023-01-02T17:25:19.891Z,100.00
2023-01-02T17:27:46.338Z,100.00
2023-01-02T17:30:13.705Z,100.00
2023-01-02T17:32:40.589Z,100.00
2023-01-02T17:35:07.529Z,100.00
2023-01-02T17:37:33.940Z,100.00
2023-01-02T17:40:00.411Z,100.00
2023-01-02T17:42:26.841Z,100.00
2023-01-02T17:44:53.246Z,100.00
2023-01-02T17:50:06.285Z,100.00
2023-01-02T17:52:32.634Z,100.00
2023-01-02T17:54:59.093Z,100.00
2023-01-02T17:57:25.628Z,100.00
2023-01-02T17:59:52.077Z,100.00
2023-01-02T18:02:19.258Z,100.00
2023-01-02T18:04:51.120Z,100.00
2023-01-02T18:07:21.093Z,100.00
2023-01-02T18:10:08.647Z,100.00
2023-01-02T18:12:35.676Z,100.00
2023-01-02T18:15:09.176Z,100.00
2023-01-02T18:17:35.539Z,100.00
2023-01-02T18:20:02.483Z,100.00
2023-01-02T18:22:30.331Z,100.00
2023-01-02T18:24:56.753Z,100.00
2023-01-02T18:27:27.636Z,100.00
2023-01-02T18:29:59.052Z,100.00
2023-01-02T18:32:32.537Z,100.00
2023-01-02T18:35:00.487Z,100.00
2023-01-02T18:37:30.434Z,100.00
2023-01-02T18:39:57.088Z,100.00
2023-01-02T18:42:26.556Z,100.00
2023-01-02T18:44:54.363Z,100.00
2023-01-02T18:47:28.563Z,100.00
2023-01-02T18:49:57.687Z,100.00
2023-01-02T18:52:28.784Z,100.00
2023-01-02T18:55:00.178Z,100.00
2023-01-02T18:57:29.328Z,100.00
2023-01-02T18:59:59.081Z,100.00
2023-01-02T19:02:25.719Z,100.00
2023-01-02T19:04:52.381Z,100.00
2023-01-02T19:07:18.746Z,100.00
2023-01-02T19:09:45.105Z,100.00
2023-01-02T19:12:32.034Z,100.00
2023-01-02T19:15:00.005Z,100.00
2023-01-02T19:17:28.421Z,100.00
2023-01-02T19:19:55.547Z,100.00
2023-01-02T19:22:23.213Z,100.00
2023-01-02T19:24:49.896Z,100.00
2023-01-02T19:27:22.196Z,100.00
2023-01-02T19:29:48.869Z,100.00
2023-01-02T19:32:28.874Z,100.00
2023-01-02T19:34:59.951Z,100.00
2023-01-02T19:37:40.181Z,100.00
2023-01-02T19:40:19.500Z,100.00
2023-01-02T19:42:50.285Z,100.00
2023-01-02T19:45:19.015Z,100.00
2023-01-02T19:47:45.664Z,100.00
2023-01-02T19:50:14.315Z,100.00
2023-01-02T19:52:40.740Z,100.00
2023-01-02T19:55:08.326Z,100.00
2023-01-02T19:57:35.097Z,100.00
2023-01-02T20:00:06.988Z,100.00
2023-01-02T20:02:33.557Z,100.00
2023-01-02T20:05:03.322Z,100.00
2023-01-02T20:07:29.871Z,100.00
2023-01-02T20:09:56.519Z,100.00
2023-01-02T20:12:40.090Z,100.00
2023-01-02T20:15:10.631Z,100.00
2023-01-02T20:17:37.760Z,100.00
2023-01-02T20:20:05.258Z,100.00
2023-01-02T20:22:31.884Z,100.00
2023-01-02T20:24:58.538Z,100.00
2023-01-02T20:27:25.287Z,100.00
2023-01-02T20:29:51.862Z,100.00
2023-01-02T20:32:21.899Z,100.00
2023-01-02T20:34:48.218Z,100.00
2023-01-02T20:37:14.594Z,100.00
2023-01-02T20:39:41.128Z,100.00
2023-01-02T20:42:12.953Z,100.00
2023-01-02T20:44:40.279Z,100.00
2023-01-02T20:47:09.760Z,100.00
2023-01-02T20:49:36.129Z,100.00
2023-01-02T20:52:03.097Z,100.00
2023-01-02T20:54:29.958Z,100.00
2023-01-02T20:56:56.760Z,100.00
2023-01-02T20:59:23.470Z,100.00
2023-01-02T21:01:50.592Z,100.00
2023-01-02T21:04:22.553Z,100.00
2023-01-02T21:06:51.149Z,100.00
2023-01-02T21:09:17.568Z,100.00
2023-01-02T21:11:43.972Z,100.00
2023-01-02T21:14:10.368Z,100.00
2023-01-02T21:16:36.719Z,100.00
2023-01-02T21:19:03.233Z,100.00
2023-01-02T21:21:30.721Z,100.00
2023-01-02T21:23:57.242Z,100.00
2023-01-02T21:26:23.672Z,100.00
2023-01-02T21:28:50.400Z,100.00
2023-01-02T21:31:18.031Z,100.00
2023-01-02T21:33:44.869Z,100.00
2023-01-02T21:36:11.254Z,100.00
2023-01-02T21:38:38.012Z,100.00
2023-01-02T21:41:23.111Z,100.00
2023-01-02T21:43:50.684Z,100.00
2023-01-02T21:46:17.220Z,100.00
2023-01-02T21:48:44.532Z,100.00
2023-01-02T21:51:10.896Z,100.00
2023-01-02T21:53:37.319Z,100.00
2023-01-02T21:56:03.730Z,100.00
2023-01-02T21:58:30.086Z,100.00
2023-01-02T22:00:56.493Z,100.00
2023-01-02T22:03:22.998Z,100.00
2023-01-02T22:05:49.477Z,100.00
2023-01-02T22:08:15.893Z,100.00
2023-01-02T22:10:42.257Z,100.00
2023-01-02T22:13:08.603Z,100.00
2023-01-02T22:15:35.010Z,100.00
2023-01-02T22:18:01.331Z,100.00
2023-01-02T22:20:27.878Z,100.00
2023-01-02T22:22:54.328Z,100.00
2023-01-02T22:25:20.715Z,100.00
2023-01-02T22:27:47.075Z,100.00
2023-01-02T22:30:31.061Z,100.00
2023-01-02T22:33:00.304Z,100.00
2023-01-02T22:35:27.259Z,100.00
2023-01-02T22:37:53.788Z,100.00
2023-01-02T22:40:20.427Z,100.00
2023-01-02T22:43:05.306Z,100.00
2023-01-02T22:45:39.568Z,100.00
2023-01-02T22:48:07.530Z,100.00
2023-01-02T22:50:44.781Z,100.00
2023-01-02T22:53:21.649Z,100.00
2023-01-02T22:55:48.380Z,100.00
2023-01-02T22:58:14.783Z,100.00
2023-01-02T23:00:41.290Z,100.00
2023-01-02T23:03:12.430Z,100.00
2023-01-02T23:05:38.840Z,100.00
2023-01-02T23:08:05.400Z,100.00
2023-01-02T23:10:31.794Z,100.00
2023-01-02T23:12:58.247Z,100.00
2023-01-02T23:15:24.589Z,100.00
2023-01-02T23:18:09.606Z,100.00
2023-01-02T23:20:35.997Z,100.00
2023-01-02T23:23:02.357Z,100.00
2023-01-02T23:25:28.664Z,100.00
2023-01-02T23:27:55.061Z,100.00
2023-01-02T23:30:21.493Z,100.00
2023-01-02T23:32:47.792Z,100.00
2023-01-02T23:35:14.119Z,100.00
2023-01-02T23:37:40.493Z,100.00
2023-01-02T23:40:07.291Z,100.00
2023-01-02T23:42:33.627Z,100.00
2023-01-02T23:45:00.029Z,100.00
2023-01-02T23:47:26.355Z,100.00
2023-01-02T23:49:52.647Z,100.00
2023-01-02T23:52:19.019Z,100.00
2023-01-02T23:54:45.335Z,100.00
2023-01-02T23:57:11.681Z,100.00
2023-01-02T23:59:38.024Z,100.00
